createdAt,value
2022-10-29T00:02:25.959Z,8.80
2022-10-29T00:07:28.085Z,8.93
2022-10-29T00:12:29.845Z,8.45
2022-10-29T00:17:31.728Z,8.38
2022-10-29T00:22:33.533Z,7.90
2022-10-29T00:27:35.305Z,7.77
2022-10-29T00:32:37.345Z,7.70
2022-10-29T00:37:40.890Z,8.03
2022-10-29T00:42:42.680Z,7.40
2022-10-29T00:47:45.244Z,7.17
2022-10-29T00:52:50.102Z,7.60
2022-10-29T00:57:55.309Z,8.30
2022-10-29T01:02:58.591Z,8.67
2022-10-29T01:08:01.840Z,8.57
2022-10-29T01:13:09.465Z,8.33
2022-10-29T01:18:11.427Z,7.83
2022-10-29T01:23:50.722Z,8.25
2022-10-29T01:28:55.548Z,7.77
2022-10-29T01:34:05.504Z,8.37
2022-10-29T01:39:24.588Z,8.63
2022-10-29T01:44:35.240Z,8.73
2022-10-29T01:49:44.212Z,8.90
2022-10-29T01:54:47.942Z,8.50
2022-10-29T01:59:56.158Z,8.50
2022-10-29T02:05:03.118Z,8.30
2022-10-29T02:10:19.981Z,9.43
2022-10-29T02:15:34.477Z,9.37
2022-10-29T02:20:42.188Z,9.53
2022-10-29T02:25:44.276Z,9.37
2022-10-29T02:30:46.249Z,10.13
2022-10-29T02:35:48.154Z,9.13
2022-10-29T02:40:49.965Z,9.60
2022-10-29T02:46:09.964Z,10.33
2022-10-29T02:51:12.172Z,9.90
2022-10-29T02:56:13.972Z,10.13
2022-10-29T03:01:15.918Z,10.23
2022-10-29T03:06:19.639Z,9.93
2022-10-29T03:11:21.583Z,9.93
2022-10-29T03:16:23.533Z,9.30
2022-10-29T03:21:25.276Z,9.30
2022-10-29T03:26:27.244Z,9.90
2022-10-29T03:31:29.171Z,10.17
2022-10-29T03:36:31.234Z,9.23
2022-10-29T03:41:32.986Z,10.30
2022-10-29T03:46:34.970Z,9.27
2022-10-29T03:51:36.921Z,9.80
2022-10-29T03:56:38.803Z,9.53
2022-10-29T04:01:40.936Z,9.27
2022-10-29T04:06:43.032Z,9.17
2022-10-29T04:11:44.955Z,8.90
2022-10-29T04:16:47.144Z,10.30
2022-10-29T04:32:33.227Z,8.30
2022-10-29T04:37:34.977Z,9.17
2022-10-29T04:42:37.657Z,8.27
2022-10-29T04:47:39.583Z,8.63
2022-10-29T04:52:41.346Z,8.48
2022-10-29T04:57:43.245Z,9.30
2022-10-29T05:02:52.076Z,8.40
2022-10-29T05:08:01.740Z,8.70
2022-10-29T05:13:10.601Z,7.87
2022-10-29T05:18:12.777Z,8.03
2022-10-29T05:23:14.589Z,7.80
2022-10-29T05:28:19.266Z,7.93
2022-10-29T05:33:24.220Z,7.75
2022-10-29T05:38:26.045Z,8.17
2022-10-29T05:43:28.035Z,7.57
2022-10-29T05:48:30.427Z,8.03
2022-10-29T05:53:32.346Z,7.23
2022-10-29T05:58:34.162Z,7.60
2022-10-29T06:03:38.439Z,7.50
2022-10-29T06:08:40.546Z,8.37
2022-10-29T06:13:42.353Z,8.00
2022-10-29T06:18:44.136Z,7.77
2022-10-29T06:23:46.037Z,8.20
2022-10-29T06:28:48.033Z,7.83
2022-10-29T06:33:49.841Z,7.73
2022-10-29T06:38:51.584Z,7.37
2022-10-29T06:43:53.752Z,8.73
2022-10-29T06:48:55.550Z,8.57
2022-10-29T06:53:57.678Z,9.33
2022-10-29T06:58:59.595Z,9.80
2022-10-29T07:04:02.100Z,8.00
2022-10-29T07:09:04.299Z,8.57
2022-10-29T07:14:08.420Z,8.37
2022-10-29T07:19:10.393Z,8.30
2022-10-29T07:24:18.333Z,7.93
2022-10-29T07:29:20.281Z,7.60
2022-10-29T07:34:22.189Z,8.03
2022-10-29T07:39:23.968Z,18.93
2022-10-29T07:44:25.774Z,13.67
2022-10-29T07:49:27.710Z,10.20
2022-10-29T07:54:30.301Z,7.93
2022-10-29T07:59:32.206Z,8.15
2022-10-29T08:04:33.952Z,9.70
2022-10-29T08:09:35.727Z,25.35
2022-10-29T08:14:37.727Z,10.15
2022-10-29T08:19:39.665Z,30.88
2022-10-29T08:24:41.566Z,20.45
2022-10-29T08:29:43.356Z,7.93
2022-10-29T08:34:45.170Z,6.60
2022-10-29T08:39:47.065Z,6.00
2022-10-29T08:45:28.634Z,6.15
2022-10-29T08:50:34.937Z,4.50
2022-10-29T08:55:37.817Z,4.55
2022-10-29T09:00:42.527Z,4.43
2022-10-29T09:06:19.964Z,4.40
2022-10-29T09:11:51.773Z,4.35
2022-10-29T09:17:14.700Z,5.85
2022-10-29T09:22:39.958Z,5.35
2022-10-29T09:27:51.747Z,4.28
2022-10-29T09:32:54.292Z,6.65
2022-10-29T09:38:01.396Z,4.22
2022-10-29T09:43:25.195Z,5.18
2022-10-29T09:48:33.912Z,6.30
2022-10-29T09:53:35.834Z,5.57
2022-10-29T09:58:42.151Z,4.43
2022-10-29T10:03:47.483Z,4.75
2022-10-29T10:09:06.091Z,4.30
2022-10-29T10:14:16.769Z,4.40
2022-10-29T10:19:31.633Z,4.63
2022-10-29T10:24:38.496Z,3.92
2022-10-29T10:29:40.793Z,6.43
2022-10-29T10:34:42.933Z,4.60
2022-10-29T10:40:10.985Z,4.32
2022-10-29T10:45:30.674Z,4.32
2022-10-29T10:50:34.965Z,4.88
2022-10-29T10:55:38.716Z,3.70
2022-10-29T11:00:44.523Z,4.43
2022-10-29T11:06:06.571Z,3.72
2022-10-29T11:11:15.799Z,3.85
2022-10-29T11:16:48.786Z,3.42
2022-10-29T11:21:56.871Z,4.10
2022-10-29T11:27:06.395Z,3.38
2022-10-29T11:32:24.253Z,3.75
2022-10-29T11:37:36.094Z,4.00
2022-10-29T11:42:39.283Z,3.83
2022-10-29T11:47:53.329Z,3.78
2022-10-29T11:53:12.177Z,3.80
2022-10-29T11:58:34.251Z,4.07
2022-10-29T12:03:41.477Z,3.67
2022-10-29T12:09:08.058Z,3.65
2022-10-29T12:14:29.853Z,4.88
2022-10-29T12:19:40.573Z,2.85
2022-10-29T12:25:15.152Z,3.45
2022-10-29T12:30:18.961Z,4.68
2022-10-29T12:35:53.209Z,5.55
2022-10-29T12:41:02.619Z,3.97
2022-10-29T12:46:20.400Z,3.22
2022-10-29T12:57:14.276Z,3.20
2022-10-29T13:02:34.321Z,6.13
2022-10-29T13:07:59.568Z,3.47
2022-10-29T13:13:13.932Z,3.17
2022-10-29T13:18:47.052Z,3.35
2022-10-29T13:24:03.020Z,2.92
2022-10-29T13:29:04.809Z,3.20
2022-10-29T13:34:06.934Z,3.13
2022-10-29T13:39:19.510Z,3.92
2022-10-29T13:44:26.120Z,3.65
2022-10-29T13:49:39.393Z,3.60
2022-10-29T13:54:49.375Z,5.10
2022-10-29T14:00:06.555Z,3.35
2022-10-29T14:05:30.969Z,3.05
2022-10-29T14:10:58.024Z,3.33
2022-10-29T14:16:06.206Z,3.78
2022-10-29T14:21:23.054Z,3.28
2022-10-29T14:26:28.489Z,3.13
2022-10-29T14:31:30.724Z,2.60
2022-10-29T14:36:42.319Z,3.25
2022-10-29T14:41:45.659Z,3.13
2022-10-29T14:46:58.155Z,2.60
2022-10-29T14:52:04.137Z,3.50
2022-10-29T14:57:19.513Z,2.97
2022-10-29T15:02:37.764Z,2.78
2022-10-29T15:07:40.749Z,2.78
2022-10-29T15:12:43.030Z,3.85
2022-10-29T15:17:56.783Z,2.97
2022-10-29T15:22:59.718Z,3.45
2022-10-29T15:28:02.628Z,3.17
2022-10-29T15:33:15.943Z,3.33
2022-10-29T15:38:29.832Z,3.88
2022-10-29T15:43:31.600Z,3.20
2022-10-29T15:48:39.656Z,3.78
2022-10-29T15:53:42.224Z,3.38
2022-10-29T15:58:44.233Z,3.67
2022-10-29T16:03:46.033Z,3.75
2022-10-29T16:08:51.338Z,3.75
2022-10-29T16:13:55.276Z,3.20
2022-10-29T16:18:57.637Z,3.85
2022-10-29T16:24:00.281Z,4.38
2022-10-29T16:29:02.205Z,4.32
2022-10-29T16:34:05.749Z,4.35
2022-10-29T16:39:07.619Z,4.03
2022-10-29T16:44:10.384Z,4.97
2022-10-29T16:49:13.258Z,5.18
2022-10-29T16:54:15.348Z,4.70
2022-10-29T16:59:17.256Z,4.82
2022-10-29T17:04:19.362Z,5.28
2022-10-29T17:09:25.544Z,4.90
2022-10-29T17:14:27.618Z,4.55
2022-10-29T17:19:29.693Z,4.43
2022-10-29T17:24:31.420Z,4.13
2022-10-29T17:29:36.272Z,3.92
2022-10-29T17:34:38.600Z,4.13
2022-10-29T17:39:40.477Z,3.97
2022-10-29T17:44:42.414Z,3.63
2022-10-29T17:49:44.224Z,3.47
2022-10-29T17:54:46.013Z,3.75
2022-10-29T17:59:47.968Z,4.32
2022-10-29T18:04:49.874Z,3.65
2022-10-29T18:09:51.880Z,4.07
2022-10-29T18:14:53.908Z,3.75
2022-10-29T18:19:55.689Z,4.05
2022-10-29T18:24:57.448Z,3.65
2022-10-29T18:29:59.440Z,4.47
2022-10-29T18:35:01.291Z,4.50
2022-10-29T18:40:03.521Z,3.70
2022-10-29T18:45:05.915Z,4.40
2022-10-29T18:50:08.052Z,3.78
2022-10-29T18:55:10.052Z,4.60
2022-10-29T19:00:12.660Z,4.15
2022-10-29T19:05:14.615Z,4.30
2022-10-29T19:10:16.661Z,3.85
2022-10-29T19:15:18.689Z,4.35
2022-10-29T19:20:20.450Z,4.45
2022-10-29T19:25:23.676Z,4.22
2022-10-29T19:30:25.457Z,4.40
2022-10-29T19:35:27.461Z,4.10
2022-10-29T19:40:30.168Z,3.90
2022-10-29T19:45:32.333Z,4.75
2022-10-29T19:50:35.353Z,3.92
2022-10-29T19:55:40.826Z,4.30
2022-10-29T20:00:42.952Z,3.92
2022-10-29T20:05:45.522Z,4.78
2022-10-29T20:10:54.759Z,3.90
2022-10-29T20:15:56.847Z,3.63
2022-10-29T20:20:58.681Z,3.92
2022-10-29T20:26:00.886Z,3.92
2022-10-29T20:31:17.940Z,4.03
2022-10-29T20:36:20.818Z,3.72
2022-10-29T20:41:23.194Z,4.13
2022-10-29T20:46:25.808Z,4.18
2022-10-29T20:51:28.119Z,4.20
2022-10-29T20:56:30.155Z,3.97
2022-10-29T21:01:32.011Z,6.43
2022-10-29T21:06:33.909Z,3.83
2022-10-29T21:11:35.728Z,4.47
2022-10-29T21:16:37.637Z,5.07
2022-10-29T21:21:40.142Z,3.97
2022-10-29T21:26:42.111Z,4.70
2022-10-29T21:31:43.920Z,3.83
2022-10-29T21:36:45.953Z,3.97
2022-10-29T21:41:47.936Z,4.07
2022-10-29T21:46:49.713Z,4.18
2022-10-29T21:51:51.568Z,3.92
2022-10-29T21:56:53.504Z,4.28
2022-10-29T22:01:55.371Z,4.35
2022-10-29T22:06:57.327Z,4.20
2022-10-29T22:11:59.129Z,4.68
2022-10-29T22:17:00.913Z,4.35
2022-10-29T22:22:02.970Z,3.80
2022-10-29T22:27:05.419Z,4.75
2022-10-29T22:32:07.949Z,4.20
2022-10-29T22:37:09.753Z,4.43
2022-10-29T22:42:11.688Z,4.15
2022-10-29T22:47:13.629Z,6.07
2022-10-29T22:52:15.421Z,4.57
2022-10-29T22:57:17.317Z,4.77
2022-10-29T23:02:19.392Z,5.07
2022-10-29T23:07:21.461Z,5.20
2022-10-29T23:12:23.313Z,4.50
2022-10-29T23:17:25.113Z,4.60
2022-10-29T23:22:27.681Z,4.60
2022-10-29T23:27:29.800Z,4.67
2022-10-29T23:32:31.952Z,5.27
2022-10-29T23:37:33.688Z,4.90
2022-10-29T23:42:35.450Z,4.53
2022-10-29T23:47:37.413Z,5.77
2022-10-29T23:52:39.368Z,4.80
2022-10-29T23:57:41.929Z,5.20
